createdAt,value
2023-05-12T00:01:16.828Z,3.27
2023-05-12T00:03:43.451Z,2.20
2023-05-12T00:06:10.357Z,2.78
2023-05-12T00:08:36.816Z,2.72
2023-05-12T00:11:03.355Z,2.85
2023-05-12T00:13:30.201Z,3.03
2023-05-12T00:15:59.061Z,2.67
2023-05-12T00:18:26.323Z,2.47
2023-05-12T00:20:54.409Z,2.75
2023-05-12T00:23:22.185Z,2.60
2023-05-12T00:25:49.022Z,2.87
2023-05-12T00:28:15.517Z,3.13
2023-05-12T00:30:41.911Z,2.75
2023-05-12T00:33:08.327Z,2.40
2023-05-12T00:35:34.728Z,2.78
2023-05-12T00:38:01.129Z,2.70
2023-05-12T00:40:27.523Z,2.58
2023-05-12T00:42:53.923Z,2.05
2023-05-12T00:45:21.779Z,2.35
2023-05-12T00:47:48.565Z,2.13
2023-05-12T00:50:15.354Z,2.03
2023-05-12T00:52:42.540Z,2.70
2023-05-12T00:55:09.359Z,2.58
2023-05-12T00:57:35.742Z,2.60
2023-05-12T01:00:02.177Z,2.67
2023-05-12T01:02:28.968Z,2.77
2023-05-12T01:04:55.455Z,2.35
2023-05-12T01:07:23.050Z,2.42
2023-05-12T01:09:54.526Z,2.15
2023-05-12T01:12:21.602Z,2.13
2023-05-12T01:14:48.544Z,2.23
2023-05-12T01:17:20.800Z,2.20
2023-05-12T01:19:59.967Z,2.17
2023-05-12T01:22:31.250Z,2.42
2023-05-12T01:24:59.784Z,2.35
2023-05-12T01:27:27.434Z,2.30
2023-05-12T01:29:57.764Z,2.10
2023-05-12T01:32:24.231Z,2.53
2023-05-12T01:34:50.680Z,1.92
2023-05-12T01:37:17.101Z,2.33
2023-05-12T01:39:43.703Z,2.03
2023-05-12T01:42:10.263Z,2.28
2023-05-12T01:44:36.677Z,2.17
2023-05-12T01:47:03.153Z,2.13
2023-05-12T01:49:29.596Z,2.22
2023-05-12T01:51:56.101Z,1.63
2023-05-12T01:54:22.701Z,1.98
2023-05-12T01:56:49.140Z,2.33
2023-05-12T01:59:15.726Z,2.00
2023-05-12T02:01:42.342Z,1.58
2023-05-12T02:04:09.135Z,1.53
2023-05-12T02:06:35.923Z,1.63
2023-05-12T02:09:02.674Z,1.40
2023-05-12T02:11:29.076Z,1.27
2023-05-12T02:13:55.472Z,1.00
2023-05-12T02:16:22.026Z,1.23
2023-05-12T02:18:48.490Z,1.67
2023-05-12T02:21:14.965Z,1.38
2023-05-12T02:23:41.448Z,1.50
2023-05-12T02:26:07.864Z,1.98
2023-05-12T02:28:34.254Z,1.20
2023-05-12T02:31:00.692Z,1.48
2023-05-12T02:33:27.089Z,1.27
2023-05-12T02:35:53.500Z,1.80
2023-05-12T02:38:19.903Z,2.08
2023-05-12T02:40:46.659Z,1.53
2023-05-12T02:43:13.162Z,1.88
2023-05-12T02:45:40.127Z,1.80
2023-05-12T02:48:06.693Z,1.67
2023-05-12T02:50:33.196Z,1.75
2023-05-12T02:52:59.653Z,2.00
2023-05-12T02:55:26.211Z,2.10
2023-05-12T02:57:53.421Z,2.47
2023-05-12T03:00:20.146Z,2.40
2023-05-12T03:02:46.761Z,2.97
2023-05-12T03:05:13.338Z,2.97
2023-05-12T03:07:39.904Z,2.47
2023-05-12T03:10:06.936Z,3.17
2023-05-12T03:12:33.367Z,3.17
2023-05-12T03:14:59.788Z,3.08
2023-05-12T03:17:26.429Z,3.53
2023-05-12T03:19:52.864Z,3.25
2023-05-12T03:22:19.377Z,3.35
2023-05-12T03:24:46.385Z,3.60
2023-05-12T03:27:12.777Z,3.97
2023-05-12T03:29:39.218Z,4.60
2023-05-12T03:32:06.177Z,4.10
2023-05-12T03:34:32.555Z,6.30
2023-05-12T03:36:58.914Z,4.97
2023-05-12T03:39:25.410Z,5.50
2023-05-12T03:41:51.844Z,5.63
2023-05-12T03:44:18.717Z,5.72
2023-05-12T03:46:45.514Z,5.28
2023-05-12T03:49:12.833Z,5.38
2023-05-12T03:51:39.353Z,6.07
2023-05-12T03:54:05.740Z,6.73
2023-05-12T03:56:32.178Z,8.30
2023-05-12T03:58:58.586Z,7.20
2023-05-12T04:01:24.982Z,6.63
2023-05-12T04:03:51.519Z,6.60
2023-05-12T04:06:17.974Z,7.30
2023-05-12T04:08:44.382Z,7.32
2023-05-12T04:11:11.003Z,8.00
2023-05-12T04:13:37.424Z,7.97
2023-05-12T04:16:04.254Z,8.13
2023-05-12T04:18:30.866Z,9.20
2023-05-12T04:20:57.351Z,8.52
2023-05-12T04:23:23.985Z,7.95
2023-05-12T04:25:50.491Z,9.73
2023-05-12T04:28:16.883Z,9.73
2023-05-12T04:30:43.350Z,7.93
2023-05-12T04:33:10.092Z,9.27
2023-05-12T04:35:36.832Z,9.57
2023-05-12T04:38:03.636Z,10.57
2023-05-12T04:40:32.079Z,10.65
2023-05-12T04:43:00.581Z,8.70
2023-05-12T04:45:27.067Z,11.48
2023-05-12T04:47:53.528Z,9.77
2023-05-12T04:50:20.077Z,9.80
2023-05-12T04:52:46.554Z,10.43
2023-05-12T04:55:12.930Z,9.93
2023-05-12T04:57:41.268Z,11.18
2023-05-12T05:00:09.072Z,10.88
2023-05-12T05:02:35.875Z,11.25
2023-05-12T05:05:02.426Z,11.07
2023-05-12T05:07:28.878Z,12.17
2023-05-12T05:09:55.251Z,10.88
2023-05-12T05:12:21.671Z,11.95
2023-05-12T05:14:48.071Z,12.35
2023-05-12T05:17:14.708Z,12.00
2023-05-12T05:19:54.987Z,13.27
2023-05-12T05:22:25.210Z,12.75
2023-05-12T05:24:51.876Z,13.35
2023-05-12T05:27:18.579Z,11.32
2023-05-12T05:29:44.980Z,12.00
2023-05-12T05:32:11.405Z,11.17
2023-05-12T05:34:38.236Z,11.93
2023-05-12T05:37:05.045Z,12.05
2023-05-12T05:39:31.544Z,12.98
2023-05-12T05:41:58.194Z,13.93
2023-05-12T05:44:25.157Z,12.00
2023-05-12T05:46:51.833Z,11.48
2023-05-12T05:49:18.586Z,12.73
2023-05-12T05:51:44.953Z,13.68
2023-05-12T05:54:12.031Z,14.45
2023-05-12T05:56:38.582Z,12.50
2023-05-12T05:59:05.288Z,12.60
2023-05-12T06:01:32.423Z,13.55
2023-05-12T06:03:59.198Z,12.85
2023-05-12T06:06:26.009Z,12.60
2023-05-12T06:08:52.449Z,12.43
2023-05-12T06:11:18.830Z,12.77
2023-05-12T06:13:45.320Z,12.68
2023-05-12T06:16:11.789Z,12.85
2023-05-12T06:18:38.630Z,11.38
2023-05-12T06:21:06.149Z,12.73
2023-05-12T06:23:32.618Z,13.05
2023-05-12T06:25:59.198Z,12.00
2023-05-12T06:28:25.605Z,12.60
2023-05-12T06:30:51.989Z,13.07
2023-05-12T06:33:18.430Z,11.57
2023-05-12T06:35:44.858Z,11.73
2023-05-12T06:38:11.257Z,13.85
2023-05-12T06:40:37.658Z,12.93
2023-05-12T06:43:04.070Z,12.95
2023-05-12T06:45:30.730Z,12.63
2023-05-12T06:47:57.838Z,12.73
2023-05-12T06:50:24.340Z,12.68
2023-05-12T06:52:50.853Z,13.48
2023-05-12T06:55:20.049Z,12.80
2023-05-12T06:57:46.636Z,12.83
2023-05-12T07:00:13.876Z,13.00
2023-05-12T07:02:40.542Z,13.52
2023-05-12T07:05:07.251Z,12.23
2023-05-12T07:07:33.688Z,13.32
2023-05-12T07:10:00.310Z,12.47
2023-05-12T07:12:26.937Z,12.63
2023-05-12T07:14:53.383Z,11.88
2023-05-12T07:17:19.739Z,12.38
2023-05-12T07:19:46.113Z,12.45
2023-05-12T07:22:17.580Z,12.53
2023-05-12T07:24:44.208Z,12.57
2023-05-12T07:27:10.934Z,11.95
2023-05-12T07:29:37.675Z,11.73
2023-05-12T07:32:04.858Z,12.63
2023-05-12T07:34:32.509Z,12.13
2023-05-12T07:36:59.563Z,11.95
2023-05-12T07:39:25.933Z,12.05
2023-05-12T07:41:54.011Z,11.23
2023-05-12T07:44:20.753Z,10.93
2023-05-12T07:46:47.251Z,10.80
2023-05-12T07:49:13.733Z,11.05
2023-05-12T07:51:40.143Z,10.75
2023-05-12T07:54:07.313Z,10.57
2023-05-12T07:56:33.870Z,11.57
2023-05-12T07:59:00.306Z,10.40
2023-05-12T08:01:26.724Z,11.45
2023-05-12T08:03:53.192Z,10.18
2023-05-12T08:06:19.629Z,10.60
2023-05-12T08:08:46.152Z,10.18
2023-05-12T08:11:12.775Z,10.57
2023-05-12T08:13:39.597Z,9.35
2023-05-12T08:16:06.277Z,9.40
2023-05-12T08:18:32.817Z,9.90
2023-05-12T08:20:59.235Z,9.93
2023-05-12T08:23:25.726Z,9.83
2023-05-12T08:25:52.098Z,9.00
2023-05-12T08:28:18.529Z,9.48
2023-05-12T08:30:45.555Z,9.13
2023-05-12T08:33:12.670Z,9.88
2023-05-12T08:35:39.590Z,8.10
2023-05-12T08:38:06.614Z,9.73
2023-05-12T08:40:54.480Z,8.18
2023-05-12T08:43:26.288Z,10.43
2023-05-12T08:45:57.459Z,9.48
2023-05-12T08:48:29.162Z,7.93
2023-05-12T08:50:57.853Z,8.15
2023-05-12T08:53:25.728Z,9.18
2023-05-12T08:57:08.113Z,8.32
2023-05-12T08:58:42.209Z,7.65
2023-05-12T09:01:11.699Z,6.43
2023-05-12T09:03:38.998Z,6.57
2023-05-12T09:06:06.635Z,6.95
2023-05-12T09:08:34.934Z,7.00
2023-05-12T09:11:02.488Z,6.38
2023-05-12T09:14:00.967Z,6.53
2023-05-12T09:16:30.232Z,6.13
2023-05-12T09:18:58.857Z,7.05
2023-05-12T09:21:26.460Z,7.22
2023-05-12T09:24:06.082Z,6.30
2023-05-12T09:26:45.337Z,5.37
2023-05-12T09:29:20.838Z,4.90
2023-05-12T09:32:00.270Z,4.95
2023-05-12T09:34:31.766Z,4.57
2023-05-12T09:37:01.130Z,3.58
2023-05-12T09:39:28.844Z,4.47
2023-05-12T09:41:55.831Z,3.97
2023-05-12T09:44:23.977Z,4.38
2023-05-12T09:46:51.910Z,4.22
2023-05-12T09:49:20.366Z,3.90
2023-05-12T09:51:59.219Z,3.67
2023-05-12T09:54:29.848Z,4.57
2023-05-12T09:57:00.341Z,4.53
2023-05-12T09:59:31.391Z,4.32
2023-05-12T10:02:00.784Z,4.30
2023-05-12T10:04:29.975Z,4.33
2023-05-12T10:06:58.411Z,4.30
2023-05-12T10:09:39.174Z,4.72
2023-05-12T10:12:06.490Z,4.05
2023-05-12T10:14:33.766Z,3.50
2023-05-12T10:17:00.890Z,2.97
2023-05-12T10:19:32.935Z,3.05
2023-05-12T10:22:00.529Z,3.10
2023-05-12T10:24:27.585Z,3.00
2023-05-12T10:26:57.572Z,3.17
2023-05-12T10:29:29.980Z,3.03
2023-05-12T10:31:57.638Z,3.35
2023-05-12T10:34:30.620Z,2.92
2023-05-12T10:36:58.296Z,3.58
2023-05-12T10:39:29.656Z,2.90
2023-05-12T10:42:06.437Z,2.40
2023-05-12T10:44:32.963Z,3.25
2023-05-12T10:47:02.143Z,3.10
2023-05-12T10:49:40.042Z,2.85
2023-05-12T10:52:07.460Z,2.40
2023-05-12T10:54:44.303Z,2.80
2023-05-12T10:57:18.203Z,2.63
2023-05-12T11:00:01.610Z,2.20
2023-05-12T11:02:36.244Z,2.10
2023-05-12T11:05:12.471Z,2.00
2023-05-12T11:07:39.868Z,1.60
2023-05-12T11:10:07.944Z,2.40
2023-05-12T11:12:37.839Z,1.77
2023-05-12T11:15:06.626Z,2.40
2023-05-12T11:17:33.563Z,1.95
2023-05-12T11:20:01.355Z,2.33
2023-05-12T11:22:28.277Z,2.97
2023-05-12T11:24:54.748Z,1.58
2023-05-12T11:27:23.153Z,2.08
2023-05-12T11:29:58.270Z,1.60
2023-05-12T11:32:24.821Z,1.60
2023-05-12T11:34:51.325Z,1.90
2023-05-12T11:37:21.048Z,2.47
2023-05-12T11:39:48.009Z,2.20
2023-05-12T11:42:16.300Z,1.50
2023-05-12T11:44:49.160Z,2.23
2023-05-12T11:47:16.662Z,2.45
2023-05-12T11:49:51.785Z,2.90
2023-05-12T11:52:20.222Z,2.58
2023-05-12T11:54:51.539Z,2.13
2023-05-12T11:57:27.489Z,1.90
2023-05-12T12:00:07.183Z,2.30
2023-05-12T12:02:34.463Z,1.98
2023-05-12T12:05:01.200Z,2.10
2023-05-12T12:07:36.953Z,2.60
2023-05-12T12:10:13.841Z,1.93
2023-05-12T12:12:41.175Z,1.67
2023-05-12T12:15:08.575Z,2.13
2023-05-12T12:17:34.948Z,2.47
2023-05-12T12:20:01.587Z,2.05
2023-05-12T12:22:28.049Z,1.97
2023-05-12T12:24:54.406Z,1.95
2023-05-12T12:27:20.758Z,1.85
2023-05-12T12:29:47.268Z,2.28
2023-05-12T12:32:13.670Z,3.05
2023-05-12T12:34:41.329Z,2.20
2023-05-12T12:37:07.785Z,2.38
2023-05-12T12:39:34.222Z,2.20
2023-05-12T12:42:00.570Z,2.33
2023-05-12T12:44:27.332Z,2.03
2023-05-12T12:46:54.004Z,1.80
2023-05-12T12:49:20.445Z,2.75
2023-05-12T12:51:47.377Z,2.35
2023-05-12T12:54:15.217Z,2.85
2023-05-12T12:56:43.148Z,2.50
2023-05-12T12:59:09.576Z,2.33
2023-05-12T13:01:36.099Z,2.90
2023-05-12T13:04:02.754Z,2.42
2023-05-12T13:06:29.240Z,2.70
2023-05-12T13:08:56.340Z,3.17
2023-05-12T13:11:22.748Z,2.70
2023-05-12T13:13:49.118Z,2.97
2023-05-12T13:16:15.860Z,2.92
2023-05-12T13:18:42.374Z,3.30
2023-05-12T13:21:08.840Z,3.03
2023-05-12T13:23:35.320Z,2.70
2023-05-12T13:26:01.715Z,3.08
2023-05-12T13:28:28.895Z,3.03
2023-05-12T13:30:55.409Z,2.75
2023-05-12T13:33:22.026Z,2.88
2023-05-12T13:35:48.457Z,2.40
2023-05-12T13:38:15.160Z,2.60
2023-05-12T13:40:41.829Z,2.78
2023-05-12T13:43:08.436Z,2.40
2023-05-12T13:45:34.896Z,2.30
2023-05-12T13:48:01.350Z,2.10
2023-05-12T13:50:27.806Z,2.20
2023-05-12T13:52:54.242Z,2.47
2023-05-12T13:55:21.643Z,1.88
2023-05-12T13:57:48.879Z,2.30
2023-05-12T14:00:17.208Z,2.10
2023-05-12T14:02:43.843Z,2.22
2023-05-12T14:05:10.684Z,2.33
2023-05-12T14:07:37.419Z,2.65
2023-05-12T14:10:04.003Z,2.05
2023-05-12T14:12:31.291Z,2.23
2023-05-12T14:15:07.361Z,2.08
2023-05-12T14:17:44.341Z,2.17
2023-05-12T14:20:11.512Z,2.63
2023-05-12T14:22:37.862Z,2.13
2023-05-12T14:25:04.861Z,2.23
2023-05-12T14:27:31.249Z,2.33
2023-05-12T14:29:57.717Z,2.80
2023-05-12T14:32:24.185Z,2.20
2023-05-12T14:34:50.571Z,2.47
2023-05-12T14:37:16.958Z,2.80
2023-05-12T14:39:43.752Z,2.13
2023-05-12T14:42:10.142Z,2.33
2023-05-12T14:44:38.847Z,2.38
2023-05-12T14:47:07.451Z,2.30
2023-05-12T14:49:35.173Z,2.07
2023-05-12T14:52:02.492Z,3.10
2023-05-12T14:54:28.868Z,3.13
2023-05-12T14:56:55.429Z,2.45
2023-05-12T14:59:22.076Z,2.72
2023-05-12T15:01:48.621Z,2.13
2023-05-12T15:04:15.160Z,2.65
2023-05-12T15:06:41.719Z,2.60
2023-05-12T15:09:08.435Z,2.55
2023-05-12T15:11:34.799Z,2.33
2023-05-12T15:14:01.390Z,2.60
2023-05-12T15:16:28.050Z,2.47
2023-05-12T15:18:54.650Z,2.38
2023-05-12T15:21:21.126Z,2.70
2023-05-12T15:23:47.793Z,2.22
2023-05-12T15:26:31.220Z,2.20
2023-05-12T15:28:59.495Z,1.77
2023-05-12T15:31:28.679Z,2.17
2023-05-12T15:33:56.422Z,1.98
2023-05-12T15:36:22.876Z,2.08
2023-05-12T15:38:49.330Z,3.20
2023-05-12T15:41:15.768Z,2.17
2023-05-12T15:43:42.421Z,2.47
2023-05-12T15:46:10.761Z,2.72
2023-05-12T15:48:37.522Z,3.22
2023-05-12T15:51:04.170Z,2.70
2023-05-12T15:53:33.512Z,2.38
2023-05-12T15:56:04.154Z,3.67
2023-05-12T15:58:31.394Z,1.85
2023-05-12T16:00:58.292Z,1.80
2023-05-12T16:03:24.882Z,1.60
2023-05-12T16:05:51.857Z,1.70
2023-05-12T16:08:18.789Z,2.00
2023-05-12T16:10:45.302Z,1.90
2023-05-12T16:13:11.723Z,1.80
2023-05-12T16:15:38.374Z,1.63
2023-05-12T16:18:06.954Z,1.80
2023-05-12T16:20:35.096Z,1.92
2023-05-12T16:23:02.340Z,1.88
2023-05-12T16:25:29.061Z,2.33
2023-05-12T16:27:55.896Z,1.93
2023-05-12T16:30:22.347Z,2.13
2023-05-12T16:32:48.742Z,2.50
2023-05-12T16:35:15.174Z,2.33
2023-05-12T16:37:41.620Z,2.22
2023-05-12T16:40:09.518Z,2.70
2023-05-12T16:42:36.527Z,2.33
2023-05-12T16:45:03.093Z,2.42
2023-05-12T16:47:29.757Z,2.95
2023-05-12T16:49:58.073Z,2.88
2023-05-12T16:52:25.273Z,2.90
2023-05-12T16:54:51.841Z,2.53
2023-05-12T16:57:18.739Z,2.85
2023-05-12T16:59:45.437Z,2.97
2023-05-12T17:02:11.892Z,2.70
2023-05-12T17:04:38.299Z,2.83
2023-05-12T17:07:04.889Z,2.95
2023-05-12T17:09:31.301Z,3.08
2023-05-12T17:11:57.697Z,3.05
2023-05-12T17:14:24.137Z,3.80
2023-05-12T17:16:50.506Z,3.07
2023-05-12T17:19:17.005Z,3.35
2023-05-12T17:21:43.432Z,3.42
2023-05-12T17:24:10.042Z,3.80
2023-05-12T17:26:36.476Z,3.10
2023-05-12T17:29:03.100Z,3.10
2023-05-12T17:31:29.673Z,3.10
2023-05-12T17:33:56.209Z,3.20
2023-05-12T17:36:23.180Z,4.15
2023-05-12T17:38:51.049Z,3.25
2023-05-12T17:41:18.151Z,3.90
2023-05-12T17:43:44.565Z,3.60
2023-05-12T17:46:10.934Z,3.60
2023-05-12T17:48:38.500Z,3.38
2023-05-12T17:51:05.311Z,3.60
2023-05-12T17:53:32.362Z,3.43
2023-05-12T17:55:58.954Z,3.00
2023-05-12T17:58:25.469Z,2.95
2023-05-12T18:00:52.202Z,3.25
2023-05-12T18:03:23.275Z,2.33
2023-05-12T18:05:52.082Z,2.40
2023-05-12T18:08:18.935Z,2.30
2023-05-12T18:10:45.660Z,1.50
2023-05-12T18:13:12.176Z,1.60
2023-05-12T18:15:38.583Z,1.85
2023-05-12T18:18:09.067Z,1.53
2023-05-12T18:20:35.647Z,1.80
2023-05-12T18:23:02.155Z,1.60
2023-05-12T18:25:28.566Z,1.27
2023-05-12T18:27:54.936Z,1.20
2023-05-12T18:30:21.330Z,1.47
2023-05-12T18:32:47.842Z,1.70
2023-05-12T18:35:14.324Z,1.50
2023-05-12T18:37:40.762Z,1.50
2023-05-12T18:40:08.269Z,1.50
2023-05-12T18:42:34.915Z,1.60
2023-05-12T18:45:01.643Z,1.23
2023-05-12T18:47:28.561Z,1.42
2023-05-12T18:49:55.082Z,1.60
2023-05-12T18:52:21.488Z,1.85
2023-05-12T18:54:49.671Z,1.40
2023-05-12T18:57:16.892Z,1.60
2023-05-12T18:59:43.513Z,1.80
2023-05-12T19:02:10.207Z,1.67
2023-05-12T19:04:37.001Z,1.90
2023-05-12T19:07:03.952Z,1.90
2023-05-12T19:09:30.501Z,1.77
2023-05-12T19:11:56.893Z,1.80
2023-05-12T19:14:23.781Z,2.00
2023-05-12T19:16:50.301Z,1.80
2023-05-12T19:19:17.272Z,2.00
2023-05-12T19:21:43.948Z,1.90
2023-05-12T19:24:10.646Z,1.95
2023-05-12T19:26:37.397Z,1.88
2023-05-12T19:29:04.421Z,2.10
2023-05-12T19:31:31.210Z,2.10
2023-05-12T19:33:57.674Z,2.40
2023-05-12T19:36:24.211Z,2.42
2023-05-12T19:38:50.651Z,2.17
2023-05-12T19:41:17.043Z,1.80
2023-05-12T19:43:43.499Z,2.17
2023-05-12T19:46:09.971Z,2.45
2023-05-12T19:48:36.459Z,2.13
2023-05-12T19:51:03.088Z,2.60
2023-05-12T19:53:29.534Z,2.45
2023-05-12T19:55:56.629Z,2.67
2023-05-12T19:58:23.194Z,2.80
2023-05-12T20:00:49.716Z,2.95
2023-05-12T20:03:16.216Z,3.03
2023-05-12T20:05:42.732Z,3.35
2023-05-12T20:08:09.197Z,3.00
2023-05-12T20:10:35.734Z,3.28
2023-05-12T20:13:05.392Z,3.25
2023-05-12T20:15:33.962Z,3.30
2023-05-12T20:18:00.857Z,4.30
2023-05-12T20:20:27.306Z,3.70
2023-05-12T20:22:53.768Z,3.20
2023-05-12T20:25:20.410Z,3.55
2023-05-12T20:27:48.002Z,3.55
2023-05-12T20:30:14.591Z,3.70
2023-05-12T20:32:41.061Z,3.73
2023-05-12T20:35:07.903Z,3.92
2023-05-12T20:37:34.331Z,3.80
2023-05-12T20:40:00.788Z,4.53
2023-05-12T20:42:27.227Z,4.43
2023-05-12T20:44:53.837Z,3.90
2023-05-12T20:47:20.409Z,4.30
2023-05-12T20:49:47.129Z,4.55
2023-05-12T20:52:13.594Z,4.10
2023-05-12T20:54:39.966Z,5.00
2023-05-12T20:57:06.432Z,3.83
2023-05-12T20:59:32.896Z,4.32
2023-05-12T21:01:59.295Z,4.53
2023-05-12T21:04:25.979Z,4.55
2023-05-12T21:06:53.802Z,4.40
2023-05-12T21:09:20.401Z,4.33
2023-05-12T21:11:47.206Z,5.50
2023-05-12T21:14:13.658Z,4.18
2023-05-12T21:16:40.264Z,4.95
2023-05-12T21:19:07.108Z,4.45
2023-05-12T21:21:33.764Z,4.17
2023-05-12T21:24:00.200Z,4.85
2023-05-12T21:26:27.208Z,4.60
2023-05-12T21:28:53.643Z,5.18
2023-05-12T21:31:20.114Z,4.43
2023-05-12T21:33:46.729Z,5.13
2023-05-12T21:36:13.363Z,4.30
2023-05-12T21:38:39.779Z,4.57
2023-05-12T21:41:06.285Z,4.07
2023-05-12T21:43:32.737Z,4.30
2023-05-12T21:46:03.683Z,4.40
2023-05-12T21:48:30.483Z,4.70
2023-05-12T21:50:58.852Z,4.47
2023-05-12T21:53:25.384Z,4.28
2023-05-12T21:55:51.773Z,4.50
2023-05-12T21:58:18.368Z,4.47
2023-05-12T22:00:44.817Z,4.40
2023-05-12T22:03:11.299Z,4.43
2023-05-12T22:05:37.854Z,4.05
2023-05-12T22:08:04.315Z,4.35
2023-05-12T22:10:31.945Z,4.30
2023-05-12T22:12:58.346Z,4.85
2023-05-12T22:15:24.740Z,4.35
2023-05-12T22:17:51.630Z,3.97
2023-05-12T22:20:18.948Z,4.43
2023-05-12T22:22:45.629Z,3.70
2023-05-12T22:25:12.127Z,3.67
2023-05-12T22:27:38.578Z,4.28
2023-05-12T22:30:05.948Z,4.00
2023-05-12T22:32:32.379Z,3.30
2023-05-12T22:34:58.750Z,3.33
2023-05-12T22:37:26.432Z,3.25
2023-05-12T22:39:52.823Z,3.17
2023-05-12T22:42:19.491Z,3.30
2023-05-12T22:44:45.958Z,3.35
2023-05-12T22:47:12.654Z,2.83
2023-05-12T22:49:39.148Z,3.33
2023-05-12T22:52:06.074Z,3.53
2023-05-12T22:54:32.557Z,2.92
2023-05-12T22:56:58.897Z,2.92
2023-05-12T22:59:25.397Z,3.87
2023-05-12T23:01:51.814Z,3.15
2023-05-12T23:04:18.253Z,2.90
2023-05-12T23:06:44.688Z,2.75
2023-05-12T23:09:11.363Z,2.88
2023-05-12T23:11:37.752Z,2.80
2023-05-12T23:14:04.194Z,3.20
2023-05-12T23:16:30.723Z,3.10
2023-05-12T23:18:57.215Z,3.15
2023-05-12T23:21:23.651Z,2.80
2023-05-12T23:23:50.057Z,2.97
2023-05-12T23:26:16.409Z,2.92
2023-05-12T23:28:42.773Z,3.40
2023-05-12T23:31:10.184Z,3.30
2023-05-12T23:33:36.808Z,3.20
2023-05-12T23:36:03.566Z,2.83
2023-05-12T23:38:29.928Z,2.80
2023-05-12T23:40:56.297Z,2.65
2023-05-12T23:43:22.788Z,2.63
2023-05-12T23:45:49.368Z,2.90
2023-05-12T23:48:15.793Z,2.43
2023-05-12T23:50:42.265Z,2.83
2023-05-12T23:53:08.778Z,3.15
2023-05-12T23:55:36.886Z,3.15
2023-05-12T23:58:03.353Z,3.53
